Time;durP1;ratioP1;P1;durP2;ratioP2;P2;SDS_P1;SDS_P2;PMS_P1;PMS_P2;Temp;Humidity;BMP_temperature;BMP_pressure;BME280_temperature;BME280_humidity;BME280_pressure;Samples;Min_cycle;Max_cycle;Signal;HPM_P1;HPM_P2
2021/04/04 00:01:05;;;;;;;9.50;3.35;;;;;;;-0.86;100.00;98395.28;5058872;28;20045;-78
2021/04/04 00:03:32;;;;;;;6.75;3.10;;;;;;;-0.83;100.00;98396.69;5039889;28;20041;-80
2021/04/04 00:05:59;;;;;;;7.22;3.17;;;;;;;-0.74;100.00;98396.16;5040171;28;20103;-80
2021/04/04 00:08:26;;;;;;;11.60;3.13;;;;;;;-0.77;100.00;98393.13;5038493;28;20069;-79
2021/04/04 00:10:53;;;;;;;13.55;4.60;;;;;;;-0.78;100.00;98396.84;5040306;28;20046;-79
2021/04/04 00:13:19;;;;;;;12.35;4.13;;;;;;;-0.80;100.00;98386.41;5041943;28;20049;-79
2021/04/04 00:15:45;;;;;;;9.15;3.67;;;;;;;-0.83;100.00;98394.03;5042726;28;20037;-78
2021/04/04 00:18:11;;;;;;;11.18;3.85;;;;;;;-0.90;100.00;98390.63;5037712;28;20050;-79
2021/04/04 00:20:38;;;;;;;9.48;3.25;;;;;;;-0.90;100.00;98403.91;5041166;28;20543;-80
2021/04/04 00:23:04;;;;;;;12.00;3.80;;;;;;;-0.87;100.00;98395.50;5043803;28;20246;-80
2021/04/04 00:25:30;;;;;;;8.30;3.50;;;;;;;-0.91;100.00;98381.88;5025926;28;20068;-79
2021/04/04 00:27:57;;;;;;;7.28;3.25;;;;;;;-0.87;100.00;98387.53;5025394;28;20108;-80
2021/04/04 00:30:24;;;;;;;9.13;3.60;;;;;;;-0.95;100.00;98385.16;5042741;28;20041;-80
2021/04/04 00:32:50;;;;;;;10.55;4.00;;;;;;;-1.05;100.00;98385.69;5043843;28;20080;-81
2021/04/04 00:35:18;;;;;;;12.75;3.80;;;;;;;-1.06;100.00;98370.81;5043492;28;20417;-79
2021/04/04 00:37:46;;;;;;;9.40;3.42;;;;;;;-0.97;100.00;98382.75;5043711;28;20048;-80
2021/04/04 00:40:17;;;;;;;9.15;3.90;;;;;;;-0.99;100.00;98378.69;5043643;28;20051;-78
2021/04/04 00:42:44;;;;;;;11.55;4.47;;;;;;;-0.92;100.00;98382.06;5043738;28;20061;-82
2021/04/04 00:45:16;;;;;;;15.43;4.60;;;;;;;-0.98;100.00;98382.97;5043808;28;20046;-78
2021/04/04 00:47:42;;;;;;;12.30;5.00;;;;;;;-1.06;100.00;98383.28;5046165;28;20056;-79
2021/04/04 00:50:09;;;;;;;15.07;5.15;;;;;;;-1.11;100.00;98389.22;5048550;28;20052;-78
2021/04/04 00:52:36;;;;;;;13.40;4.43;;;;;;;-1.11;100.00;98383.91;5048516;28;20045;-79
2021/04/04 00:55:05;;;;;;;16.15;5.28;;;;;;;-1.18;100.00;98395.66;5064161;28;20063;-81
2021/04/04 00:57:32;;;;;;;12.88;5.35;;;;;;;-1.30;100.00;98390.28;5047289;28;20050;-79
2021/04/04 00:59:59;;;;;;;14.95;4.78;;;;;;;-1.23;100.00;98398.97;5045697;28;20053;-82
2021/04/04 01:02:26;;;;;;;13.85;5.45;;;;;;;-1.20;100.00;98395.06;5045197;28;20030;-79
2021/04/04 01:04:54;;;;;;;14.30;5.22;;;;;;;-1.21;100.00;98383.63;5044125;28;20060;-79
2021/04/04 01:07:21;;;;;;;13.52;5.00;;;;;;;-1.22;100.00;98375.88;5043627;28;20069;-80
2021/04/04 01:09:47;;;;;;;12.82;4.88;;;;;;;-1.16;100.00;98394.41;5052853;28;20097;-79
2021/04/04 01:12:28;;;;;;;15.48;4.82;;;;;;;-1.17;100.00;98390.13;5052267;28;20516;-80
2021/04/04 01:15:07;;;;;;;14.23;4.25;;;;;;;-1.16;100.00;98389.09;5046005;28;20052;-80
2021/04/04 01:17:34;;;;;;;9.82;4.13;;;;;;;-1.08;100.00;98388.78;5043709;28;20056;-80
2021/04/04 01:20:26;;;;;;;12.65;4.03;;;;;;;-1.13;100.00;98393.13;5043822;28;20049;-81
2021/04/04 01:22:58;;;;;;;9.80;3.60;;;;;;;-1.26;100.00;98394.09;5043298;28;20116;-81
2021/04/04 01:25:41;;;;;;;13.68;4.43;;;;;;;-1.25;100.00;98395.72;5041430;28;20045;-81
2021/04/04 01:28:28;;;;;;;9.10;3.60;;;;;;;-1.40;100.00;98393.44;5023722;28;20124;-82
2021/04/04 01:30:55;;;;;;;8.73;3.85;;;;;;;-1.42;100.00;98397.34;5040461;28;20043;-79
2021/04/04 01:33:24;;;;;;;9.93;3.42;;;;;;;-1.46;100.00;98399.63;5036476;28;20049;-82
2021/04/04 01:35:56;;;;;;;9.43;3.30;;;;;;;-1.57;100.00;98395.03;5037599;28;20096;-83
2021/04/04 01:38:28;;;;;;;8.27;3.47;;;;;;;-1.69;100.00;98394.13;5038084;28;20408;-83
2021/04/04 01:41:10;;;;;;;8.65;3.13;;;;;;;-1.62;100.00;98394.88;5040214;28;20042;-81
2021/04/04 01:43:42;;;;;;;9.23;3.40;;;;;;;-1.73;100.00;98384.97;5038196;28;20046;-82
2021/04/04 01:46:10;;;;;;;7.95;3.33;;;;;;;-1.76;100.00;98380.13;5036393;28;20041;-82
2021/04/04 01:48:38;;;;;;;6.70;3.22;;;;;;;-1.79;100.00;98380.53;5037300;28;20041;-83
2021/04/04 01:51:05;;;;;;;10.73;3.20;;;;;;;-1.98;100.00;98361.09;5035863;28;20055;-82
2021/04/04 01:53:32;;;;;;;7.88;2.80;;;;;;;-1.88;100.00;98390.59;5036171;28;20037;-82
2021/04/04 01:55:59;;;;;;;5.65;3.08;;;;;;;-1.82;100.00;98399.53;5035113;28;20037;-83
2021/04/04 01:58:30;;;;;;;8.38;3.03;;;;;;;-1.82;100.00;98391.59;5035282;28;20137;-83
2021/04/04 02:00:58;;;;;;;5.60;2.75;;;;;;;-2.13;100.00;98355.31;5036113;28;20037;-82
2021/04/04 02:03:25;;;;;;;9.35;3.35;;;;;;;-1.85;100.00;98393.84;5017737;28;20080;-82
2021/04/04 02:05:53;;;;;;;8.18;3.50;;;;;;;-1.87;100.00;98394.09;5031929;28;20128;-81
2021/04/04 02:08:22;;;;;;;7.07;3.15;;;;;;;-2.07;100.00;98343.03;5050481;28;20524;-83
2021/04/04 02:10:52;;;;;;;8.52;3.00;;;;;;;-1.97;100.00;98349.47;5021312;28;20056;-82
2021/04/04 02:13:27;;;;;;;8.88;2.90;;;;;;;-1.84;100.00;98383.03;5021248;28;20048;-83
2021/04/04 02:16:01;;;;;;;10.05;2.55;;;;;;;-2.04;100.00;98348.69;5020512;28;20046;-84
2021/04/04 02:18:37;;;;;;;10.45;2.83;;;;;;;-2.05;100.00;98370.16;5036121;28;20049;-83
2021/04/04 02:21:13;;;;;;;8.57;2.95;;;;;;;-2.30;100.00;98343.63;5034964;28;20552;-83
2021/04/04 02:23:56;;;;;;;5.97;3.05;;;;;;;-2.36;100.00;98341.00;5035720;28;20046;-84
2021/04/04 02:26:53;;;;;;;7.20;2.90;;;;;;;-2.31;100.00;98357.09;5019343;28;20050;-84
2021/04/04 02:37:11;;;;;;;;;;;;;;;;;;;;;
2021/04/04 02:41:05;;;;;;;5.70;2.17;;;;;;;-2.12;100.00;98382.66;5039403;28;20071;-83
2021/04/04 02:50:00;;;;;;;6.10;2.80;;;;;;;-2.21;100.00;98379.44;4860828;29;20045;-83
2021/04/04 02:53:35;;;;;;;;;;;;;;;;;;;;;
2021/04/04 02:57:08;;;;;;;4.95;2.75;;;;;;;-2.47;100.00;98339.03;4780647;29;20057;-84
2021/04/04 03:04:03;;;;;;;6.00;2.72;;;;;;;-2.43;100.00;98369.41;5061554;28;20240;-79
2021/04/04 03:06:32;;;;;;;5.15;2.63;;;;;;;-2.39;100.00;98373.25;5080450;28;20045;-81
2021/04/04 03:09:02;;;;;;;7.85;2.83;;;;;;;-2.36;100.00;98380.78;5067127;28;20052;-80
2021/04/04 03:11:29;;;;;;;7.75;2.88;;;;;;;-2.53;100.00;98370.69;5059255;28;20052;-80
2021/04/04 03:13:56;;;;;;;9.82;2.80;;;;;;;-2.46;100.00;98372.50;5042952;28;20057;-79
2021/04/04 03:16:23;;;;;;;5.78;2.72;;;;;;;-2.53;100.00;98377.84;5061040;28;20431;-82
2021/04/04 03:18:51;;;;;;;11.52;3.28;;;;;;;-2.49;100.00;98379.03;5060424;28;20052;-80
2021/04/04 03:21:18;;;;;;;8.13;2.63;;;;;;;-2.44;100.00;98370.44;5056881;28;20041;-79
2021/04/04 03:23:45;;;;;;;10.63;2.63;;;;;;;-2.55;100.00;98361.31;5054365;28;20060;-80
2021/04/04 03:26:12;;;;;;;6.57;2.45;;;;;;;-2.57;100.00;98369.50;5055002;28;20044;-81
2021/04/04 03:28:41;;;;;;;7.47;2.80;;;;;;;-2.62;100.00;98365.84;5055649;28;20040;-81
2021/04/04 03:31:09;;;;;;;5.30;2.63;;;;;;;-2.58;100.00;98369.72;5055957;28;20048;-80
2021/04/04 03:33:35;;;;;;;6.93;2.72;;;;;;;-2.66;100.00;98373.41;5057353;28;20044;-83
2021/04/04 03:36:02;;;;;;;6.22;2.58;;;;;;;-2.90;100.00;98358.25;5058130;28;20068;-81
2021/04/04 03:38:30;;;;;;;10.07;2.63;;;;;;;-2.82;100.00;98371.28;5057606;28;20055;-81
2021/04/04 03:40:58;;;;;;;7.18;3.17;;;;;;;-2.79;100.00;98348.84;5061395;28;20052;-79
2021/04/04 03:43:29;;;;;;;6.05;2.97;;;;;;;-2.75;100.00;98382.63;5064019;28;20048;-81
2021/04/04 03:46:07;;;;;;;10.65;3.22;;;;;;;-2.73;100.00;98369.97;5061425;28;20037;-81
2021/04/04 03:48:35;;;;;;;9.70;2.83;;;;;;;-2.77;100.00;98360.84;5061748;28;20049;-80
2021/04/04 03:51:05;;;;;;;6.15;2.80;;;;;;;-2.68;100.00;98364.84;5074729;28;20123;-79
2021/04/04 03:53:34;;;;;;;7.63;3.00;;;;;;;-2.68;100.00;98361.41;5057431;28;20037;-81
2021/04/04 03:56:04;;;;;;;5.72;2.60;;;;;;;-2.70;100.00;98374.03;5058438;28;20052;-79
2021/04/04 03:58:37;;;;;;;6.68;3.00;;;;;;;-2.73;100.00;98356.75;5061099;28;20512;-80
2021/04/04 04:01:06;;;;;;;6.05;2.78;;;;;;;-2.63;100.00;98365.03;5058824;28;20048;-83
2021/04/04 04:03:34;;;;;;;8.32;3.15;;;;;;;-2.65;100.00;98356.50;5056741;28;20045;-81
2021/04/04 04:06:00;;;;;;;5.60;2.70;;;;;;;-2.64;100.00;98358.13;5074656;28;20049;-80
2021/04/04 04:08:30;;;;;;;7.50;3.00;;;;;;;-2.60;100.00;98363.78;5059611;28;20044;-80
2021/04/04 04:11:01;;;;;;;7.25;3.15;;;;;;;-2.68;100.00;98359.56;5060116;28;20101;-82
2021/04/04 04:13:29;;;;;;;6.70;2.65;;;;;;;-2.70;100.00;98358.97;5061392;28;20055;-80
2021/04/04 04:15:57;;;;;;;8.80;3.17;;;;;;;-2.69;100.00;98363.25;5060022;28;20044;-80
2021/04/04 04:18:24;;;;;;;5.57;2.75;;;;;;;-2.72;100.00;98350.44;5060521;28;20069;-79
2021/04/04 04:20:50;;;;;;;14.07;3.15;;;;;;;-2.76;100.00;98351.84;5060797;28;20055;-80
2021/04/04 04:23:17;;;;;;;6.88;2.70;;;;;;;-2.74;100.00;98352.47;5059379;28;20055;-80
2021/04/04 04:25:44;;;;;;;8.00;3.25;;;;;;;-2.76;100.00;98346.56;5062309;28;20505;-79
2021/04/04 04:28:11;;;;;;;7.60;2.65;;;;;;;-2.79;100.00;98339.06;5063508;28;20460;-80
2021/04/04 04:30:37;;;;;;;10.02;3.20;;;;;;;-2.86;100.00;98329.50;5064777;28;20041;-79
2021/04/04 04:33:09;;;;;;;5.07;2.35;;;;;;;-2.84;100.00;98336.22;5066009;28;20048;-80
2021/04/04 04:35:37;;;;;;;6.38;2.80;;;;;;;-2.87;100.00;98335.84;5064732;28;20059;-79
2021/04/04 04:38:05;;;;;;;6.40;2.38;;;;;;;-2.82;100.00;98336.84;5064638;28;20048;-81
2021/04/04 04:40:31;;;;;;;5.57;2.58;;;;;;;-2.92;100.00;98330.38;5066275;28;20041;-80
2021/04/04 04:42:59;;;;;;;7.15;2.90;;;;;;;-2.89;100.00;98335.25;5067965;28;20041;-79
2021/04/04 04:45:38;;;;;;;5.57;2.75;;;;;;;-2.88;100.00;98331.56;5065140;28;20157;-78
2021/04/04 04:48:06;;;;;;;6.18;2.65;;;;;;;-2.95;100.00;98331.59;5066845;28;20045;-79
2021/04/04 04:50:34;;;;;;;7.15;2.67;;;;;;;-3.01;100.00;98328.97;5065707;28;20104;-79
2021/04/04 04:53:01;;;;;;;8.70;2.58;;;;;;;-2.95;100.00;98328.13;5061930;28;20048;-80
2021/04/04 04:55:28;;;;;;;8.85;2.90;;;;;;;-2.83;100.00;98337.03;5059506;28;20099;-80
2021/04/04 04:57:57;;;;;;;8.00;2.85;;;;;;;-2.80;100.00;98337.44;5061026;28;20108;-81
2021/04/04 05:00:25;;;;;;;8.82;2.90;;;;;;;-2.94;100.00;98327.91;5061173;28;20128;-80
2021/04/04 05:02:51;;;;;;;7.00;2.85;;;;;;;-2.84;100.00;98333.56;5041967;28;20044;-80
2021/04/04 05:05:17;;;;;;;6.43;2.80;;;;;;;-2.83;100.00;98339.69;5061284;28;20055;-80
2021/04/04 05:07:46;;;;;;;8.07;2.88;;;;;;;-2.82;100.00;98344.78;5064463;28;20067;-80
2021/04/04 05:10:14;;;;;;;11.13;2.80;;;;;;;-2.78;100.00;98334.56;5041863;28;20044;-79
2021/04/04 05:13:02;;;;;;;5.82;2.72;;;;;;;-2.70;100.00;98331.66;5056761;28;20362;-80
2021/04/04 05:15:31;;;;;;;10.52;3.08;;;;;;;-2.71;100.00;98340.66;5057409;28;20052;-80
2021/04/04 05:17:57;;;;;;;8.93;2.97;;;;;;;-2.66;100.00;98331.00;5065135;28;20033;-80
2021/04/04 05:20:23;;;;;;;10.98;3.40;;;;;;;-2.56;100.00;98341.16;5070988;28;20041;-79
2021/04/04 05:22:52;;;;;;;5.82;2.90;;;;;;;-2.46;100.00;98341.50;5073056;28;20066;-79
2021/04/04 05:25:19;;;;;;;9.25;3.10;;;;;;;-2.37;100.00;98342.03;5073914;28;20051;-79
2021/04/04 05:27:45;;;;;;;8.27;2.60;;;;;;;-2.25;100.00;98351.75;5074431;28;20049;-81
2021/04/04 05:30:12;;;;;;;9.95;2.97;;;;;;;-2.13;100.00;98351.84;5057674;28;20067;-81
2021/04/04 05:32:43;;;;;;;7.78;3.20;;;;;;;-2.15;100.00;98345.97;5057310;28;20052;-79
2021/04/04 05:35:23;;;;;;;10.80;3.00;;;;;;;-2.12;100.00;98332.25;5061142;28;20416;-80
2021/04/04 05:37:51;;;;;;;6.28;2.88;;;;;;;-2.11;100.00;98342.66;5061865;28;20064;-80
2021/04/04 05:40:22;;;;;;;8.15;3.00;;;;;;;-2.05;100.00;98341.78;5061720;28;20128;-80
2021/04/04 05:42:58;;;;;;;7.53;3.10;;;;;;;-2.03;100.00;98345.03;5062940;28;20385;-81
2021/04/04 05:45:29;;;;;;;12.18;3.10;;;;;;;-1.92;100.00;98332.91;5062097;28;20045;-81
2021/04/04 05:48:09;;;;;;;10.23;3.10;;;;;;;-1.77;100.00;98333.38;5065101;28;20557;-80
2021/04/04 05:50:54;;;;;;;6.18;3.38;;;;;;;-1.66;100.00;98337.97;5064904;28;20118;-81
2021/04/04 05:53:58;;;;;;;6.97;3.30;;;;;;;-1.51;100.00;98338.41;5063313;28;20059;-80
2021/04/04 05:56:46;;;;;;;6.43;3.45;;;;;;;-1.36;100.00;98338.84;5064290;28;20041;-79
2021/04/04 05:59:17;;;;;;;11.35;3.70;;;;;;;-1.34;100.00;98338.63;5062631;28;20064;-82
2021/04/04 06:02:34;;;;;;;7.55;3.70;;;;;;;-1.27;100.00;98336.72;5064910;28;20041;-80
2021/04/04 06:05:03;;;;;;;8.30;3.47;;;;;;;-1.15;100.00;98339.44;4984190;28;20050;-80
2021/04/04 06:07:43;;;;;;;9.10;3.70;;;;;;;-0.95;100.00;98348.78;5060736;28;20057;-80
2021/04/04 06:10:19;;;;;;;8.75;3.97;;;;;;;-0.79;100.00;98345.50;5056024;28;20065;-81
2021/04/04 06:13:04;;;;;;;14.77;4.18;;;;;;;-0.63;100.00;98350.22;5060492;28;20033;-80
2021/04/04 06:16:14;;;;;;;5.70;2.80;;;;;;;-0.49;100.00;98347.38;5060444;28;20124;-80
2021/04/04 06:19:40;;;;;;;11.52;4.30;;;;;;;-0.49;100.00;98318.09;5062877;23;20046;-83
2021/04/04 06:22:37;;;;;;;14.18;5.15;;;;;;;-0.23;100.00;98352.25;5050932;28;20056;-83
2021/04/04 06:25:54;;;;;;;11.18;5.43;;;;;;;-0.06;100.00;98343.41;5005594;28;20117;-81
2021/04/04 06:29:17;;;;;;;;;;;;;;;;;;;;;
2021/04/04 06:32:28;;;;;;;15.55;6.57;;;;;;;0.19;100.00;98353.03;5045356;23;20241;-83
2021/04/04 06:35:03;;;;;;;12.45;5.13;;;;;;;0.47;100.00;98363.78;5035538;28;20072;-83
2021/04/04 06:38:14;;;;;;;14.00;5.28;;;;;;;0.54;100.00;98351.19;5035987;28;20045;-83
2021/04/04 06:40:59;;;;;;;13.90;5.30;;;;;;;0.84;100.00;98361.69;4965594;29;20055;-84
2021/04/04 06:43:46;;;;;;;;;;;;;;;1.11;100.00;98357.44;5038434;28;20041;-85
2021/04/04 06:46:35;;;;;;;8.73;3.40;;;;;;;1.42;100.00;98345.50;5036724;28;19932;-83
2021/04/04 06:49:31;;;;;;;7.78;3.20;;;;;;;1.85;100.00;98369.78;5034394;28;20075;-83
2021/04/04 06:52:25;;;;;;;13.23;4.75;;;;;;;2.12;100.00;98364.59;5038225;28;20041;-85
2021/04/04 06:55:01;;;;;;;7.38;2.85;;;;;;;2.26;100.00;98344.53;5032071;28;20061;-81
2021/04/04 06:57:46;;;;;;;9.35;3.55;;;;;;;2.45;100.00;98354.69;5036785;28;20049;-80
2021/04/04 07:00:14;;;;;;;11.75;3.30;;;;;;;2.60;100.00;98351.47;5015467;28;20501;-80
2021/04/04 07:03:06;;;;;;;8.98;2.90;;;;;;;2.68;100.00;98344.88;5033054;28;20041;-79
2021/04/04 07:05:37;;;;;;;7.20;2.95;;;;;;;2.85;100.00;98345.63;5033254;28;20049;-80
2021/04/04 07:08:11;;;;;;;7.40;2.97;;;;;;;3.00;100.00;98356.53;5036390;28;20329;-79
2021/04/04 07:10:59;;;;;;;9.93;2.85;;;;;;;3.12;100.00;98355.34;5041861;28;20485;-81
2021/04/04 07:13:25;;;;;;;6.57;2.55;;;;;;;3.26;100.00;98357.63;5031307;28;20044;-77
2021/04/04 07:16:31;;;;;;;8.02;2.60;;;;;;;3.40;100.00;98358.88;5031570;28;20397;-77
2021/04/04 07:19:19;;;;;;;6.05;2.50;;;;;;;3.62;100.00;98346.25;5033066;28;20037;-79
2021/04/04 07:22:13;;;;;;;5.80;2.17;;;;;;;3.78;100.00;98346.16;5033537;28;20444;-79
2021/04/04 07:25:07;;;;;;;8.77;2.88;;;;;;;3.83;100.00;98345.41;5030836;28;20419;-79
2021/04/04 07:28:01;;;;;;;7.22;2.63;;;;;;;3.95;100.00;98358.66;5007518;28;20139;-77
2021/04/04 07:30:42;;;;;;;5.88;2.58;;;;;;;4.07;100.00;98351.25;5027057;28;20045;-78
2021/04/04 07:33:27;;;;;;;8.18;2.55;;;;;;;4.20;100.00;98356.97;5031294;28;20567;-76
2021/04/04 07:36:30;;;;;;;7.60;2.05;;;;;;;4.37;100.00;98351.47;5010144;28;20127;-76
2021/04/04 07:39:02;;;;;;;4.68;2.20;;;;;;;4.32;100.00;98346.06;5025756;28;20050;-75
2021/04/04 07:41:37;;;;;;;7.00;2.30;;;;;;;4.36;100.00;98339.16;5009089;28;20043;-75
2021/04/04 07:44:16;;;;;;;5.95;2.40;;;;;;;4.24;100.00;98354.59;5015994;28;20053;-76
2021/04/04 07:47:05;;;;;;;6.63;2.40;;;;;;;4.32;100.00;98352.25;5010228;28;20059;-76
2021/04/04 07:49:41;;;;;;;4.28;2.15;;;;;;;4.39;100.00;98339.41;5008673;28;20104;-74
2021/04/04 07:52:23;;;;;;;5.72;2.70;;;;;;;4.59;100.00;98357.53;5026710;28;20342;-76
2021/04/04 07:54:52;;;;;;;10.95;2.92;;;;;;;4.77;100.00;98353.63;5025639;28;20058;-75
2021/04/04 07:57:47;;;;;;;7.28;2.50;;;;;;;4.98;100.00;98366.84;5026056;28;20475;-76
2021/04/04 08:00:15;;;;;;;8.20;2.77;;;;;;;5.09;100.00;98350.81;5001123;28;20428;-74
2021/04/04 08:02:49;;;;;;;7.13;2.65;;;;;;;5.09;97.99;98348.13;5011731;28;20041;-76
2021/04/04 08:05:21;;;;;;;9.88;2.45;;;;;;;5.16;100.00;98354.88;5028678;28;20041;-73
2021/04/04 08:08:14;;;;;;;7.40;2.30;;;;;;;5.08;93.37;98349.22;5028554;28;20053;-76
2021/04/04 08:10:58;;;;;;;8.50;2.58;;;;;;;5.26;100.00;98356.78;5028020;28;20056;-76
2021/04/04 08:13:59;;;;;;;6.28;2.08;;;;;;;5.35;100.00;98352.53;5028775;28;20037;-77
2021/04/04 08:16:47;;;;;;;4.43;1.70;;;;;;;5.40;88.10;98355.22;5002454;28;20575;-76
2021/04/04 08:19:14;;;;;;;6.47;1.90;;;;;;;5.36;77.43;98356.84;5028493;28;20511;-77
2021/04/04 08:21:53;;;;;;;5.70;2.00;;;;;;;5.60;90.93;98360.69;5011283;28;20507;-76
2021/04/04 08:24:28;;;;;;;9.15;2.05;;;;;;;5.54;82.64;98351.78;5028310;28;20061;-75
2021/04/04 08:27:02;;;;;;;5.70;1.60;;;;;;;5.72;79.17;98347.81;5011674;28;20111;-75
2021/04/04 08:29:46;;;;;;;6.80;2.30;;;;;;;5.68;90.56;98358.25;5032640;28;20546;-75
2021/04/04 08:32:21;;;;;;;9.63;1.92;;;;;;;5.63;85.55;98344.00;5011574;28;20048;-76
2021/04/04 08:34:52;;;;;;;4.43;1.60;;;;;;;5.65;91.24;98358.00;5011260;28;20056;-75
2021/04/04 08:37:32;;;;;;;7.13;2.10;;;;;;;5.70;80.52;98349.94;5029174;28;20042;-74
2021/04/04 08:40:03;;;;;;;7.15;2.00;;;;;;;5.70;79.82;98346.44;5028633;28;20052;-74
2021/04/04 08:42:32;;;;;;;5.00;1.80;;;;;;;5.61;75.88;98340.78;5031796;28;20060;-75
2021/04/04 08:45:08;;;;;;;9.25;2.00;;;;;;;5.81;95.94;98342.72;5014995;28;20045;-75
2021/04/04 08:47:41;;;;;;;7.32;2.00;;;;;;;5.83;83.32;98349.44;5032411;28;20452;-75
2021/04/04 08:50:12;;;;;;;8.10;2.10;;;;;;;6.16;83.07;98348.16;5032415;28;20045;-76
2021/04/04 08:52:49;;;;;;;9.73;2.28;;;;;;;6.12;81.85;98347.88;5036961;28;20041;-74
2021/04/04 08:55:21;;;;;;;5.40;2.05;;;;;;;6.21;86.98;98340.06;5015489;28;20052;-74
2021/04/04 08:57:50;;;;;;;7.35;2.45;;;;;;;6.34;83.98;98352.16;5014764;28;20096;-75
2021/04/04 09:00:18;;;;;;;3.85;1.90;;;;;;;6.26;84.46;98350.84;5015111;28;20049;-74
2021/04/04 09:02:53;;;;;;;9.20;2.60;;;;;;;6.53;85.00;98353.25;5032272;28;20044;-75
2021/04/04 09:05:28;;;;;;;5.20;1.95;;;;;;;6.54;77.22;98336.00;5032976;28;20037;-75
2021/04/04 09:08:00;;;;;;;5.17;1.70;;;;;;;6.87;84.97;98340.78;5031996;28;20041;-76
2021/04/04 09:10:29;;;;;;;5.97;2.00;;;;;;;6.84;82.10;98339.44;5014703;28;20299;-76
2021/04/04 09:12:56;;;;;;;7.00;2.38;;;;;;;6.74;87.37;98336.78;5032287;28;20051;-75
2021/04/04 09:15:23;;;;;;;4.05;1.90;;;;;;;6.91;90.30;98333.78;5031931;28;20052;-75
2021/04/04 09:17:57;;;;;;;6.10;2.22;;;;;;;6.91;81.71;98341.84;5035012;28;20083;-74
2021/04/04 09:20:31;;;;;;;9.45;1.90;;;;;;;6.79;78.33;98339.44;5032493;28;20045;-75
2021/04/04 09:23:01;;;;;;;6.95;2.53;;;;;;;6.95;78.00;98325.94;5031790;28;20045;-74
2021/04/04 09:25:31;;;;;;;6.88;2.28;;;;;;;7.30;84.68;98334.69;5031317;28;20501;-75
2021/04/04 09:28:04;;;;;;;7.93;2.50;;;;;;;7.34;72.77;98325.00;5031854;28;20060;-73
2021/04/04 09:30:35;;;;;;;6.93;2.45;;;;;;;7.44;74.21;98314.16;5031768;28;20049;-75
2021/04/04 09:33:03;;;;;;;5.88;2.17;;;;;;;7.43;74.24;98326.00;5031746;28;20037;-75
2021/04/04 09:35:30;;;;;;;6.38;2.20;;;;;;;7.46;75.34;98330.84;5031984;28;20053;-76
2021/04/04 09:38:05;;;;;;;7.22;2.30;;;;;;;7.33;75.83;98322.59;5032194;28;20456;-77
2021/04/04 09:40:32;;;;;;;8.43;2.58;;;;;;;7.62;79.59;98320.78;5030916;28;20049;-74
2021/04/04 09:43:25;;;;;;;8.88;2.45;;;;;;;7.69;75.91;98323.97;5032174;28;20049;-73
2021/04/04 09:46:02;;;;;;;7.28;2.25;;;;;;;7.72;71.42;98323.44;5029638;28;20064;-74
2021/04/04 09:48:28;;;;;;;5.28;2.33;;;;;;;7.75;65.23;98306.69;5013927;28;20439;-75
2021/04/04 09:51:09;;;;;;;9.95;2.38;;;;;;;8.30;65.19;98315.47;5031261;28;20116;-76
2021/04/04 09:53:38;;;;;;;6.65;2.15;;;;;;;8.82;62.09;98315.50;5030146;28;20037;-75
2021/04/04 09:56:25;;;;;;;7.65;2.20;;;;;;;9.33;57.79;98296.78;5013302;28;20123;-75
2021/04/04 09:58:51;;;;;;;7.65;1.92;;;;;;;10.53;53.53;98307.66;5012692;28;20060;-73
2021/04/04 10:01:28;;;;;;;5.38;2.30;;;;;;;9.85;52.64;98293.88;5012840;28;20068;-74
2021/04/04 10:03:57;;;;;;;5.53;2.10;;;;;;;10.12;54.30;98305.94;5030713;28;20048;-75
2021/04/04 10:06:23;;;;;;;6.57;1.90;;;;;;;9.67;57.96;98297.41;5030501;28;20053;-75
2021/04/04 10:08:57;;;;;;;8.35;2.33;;;;;;;9.89;57.80;98286.78;5031904;28;20046;-74
2021/04/04 10:11:25;;;;;;;8.88;2.38;;;;;;;9.95;55.02;98293.72;5030341;28;20045;-76
2021/04/04 10:13:51;;;;;;;5.57;2.33;;;;;;;10.14;54.84;98295.63;5030283;28;20049;-74
2021/04/04 10:16:23;;;;;;;7.50;2.10;;;;;;;10.76;51.76;98281.53;5012750;28;20073;-75
2021/04/04 10:19:05;;;;;;;5.25;2.20;;;;;;;11.21;52.75;98280.63;5030527;28;20046;-75
2021/04/04 10:21:40;;;;;;;5.20;2.53;;;;;;;12.15;49.13;98277.97;5030678;28;20295;-77
2021/04/04 10:24:36;;;;;;;7.60;2.35;;;;;;;13.26;45.62;98271.47;5029942;28;20386;-75
2021/04/04 10:27:23;;;;;;;7.97;2.37;;;;;;;13.37;44.50;98268.13;5030510;28;20225;-76
2021/04/04 10:30:18;;;;;;;6.10;2.30;;;;;;;13.88;42.45;98258.41;5012894;28;20124;-76
2021/04/04 10:32:47;;;;;;;8.10;2.72;;;;;;;14.36;41.16;98264.47;5029898;28;20056;-76
2021/04/04 10:35:27;;;;;;;8.52;2.53;;;;;;;13.73;43.35;98262.41;5030160;28;20053;-76
2021/04/04 10:38:08;;;;;;;8.25;2.83;;;;;;;13.82;43.37;98259.69;5030182;28;20148;-76
2021/04/04 10:40:53;;;;;;;6.13;2.60;;;;;;;13.85;42.43;98259.06;5029407;28;20416;-76
2021/04/04 10:43:24;;;;;;;7.85;2.83;;;;;;;15.04;40.65;98244.34;5030162;28;20090;-77
2021/04/04 10:45:58;;;;;;;6.68;2.83;;;;;;;15.41;40.45;98245.41;5030266;28;20052;-76
2021/04/04 10:48:24;;;;;;;9.05;2.50;;;;;;;15.49;39.02;98239.13;5029719;28;20046;-75
2021/04/04 10:50:51;;;;;;;11.23;3.00;;;;;;;14.80;38.71;98239.47;5012208;28;20317;-74
2021/04/04 10:53:18;;;;;;;7.40;2.58;;;;;;;14.39;40.22;98243.94;5029807;28;20100;-74
2021/04/04 10:55:46;;;;;;;8.18;2.20;;;;;;;14.24;40.98;98245.25;5029899;28;20048;-76
2021/04/04 10:58:19;;;;;;;10.35;3.17;;;;;;;13.78;41.67;98240.50;5030037;28;20409;-74
2021/04/04 11:00:46;;;;;;;10.40;3.38;;;;;;;14.32;41.45;98234.34;5029775;28;20045;-75
2021/04/04 11:03:12;;;;;;;9.77;3.60;;;;;;;13.78;44.85;98236.97;5029304;28;20041;-76
2021/04/04 11:05:38;;;;;;;12.00;3.53;;;;;;;15.10;40.71;98220.41;5029777;28;20047;-75
2021/04/04 11:08:06;;;;;;;8.93;3.10;;;;;;;16.50;38.70;98224.06;5011802;28;20128;-77
2021/04/04 11:10:33;;;;;;;12.20;3.65;;;;;;;15.63;38.34;98217.03;5012551;28;20041;-76
2021/04/04 11:13:01;;;;;;;10.43;3.30;;;;;;;12.96;43.83;98216.03;5030031;28;20140;-75
2021/04/04 11:15:30;;;;;;;6.22;2.83;;;;;;;11.38;47.03;98203.28;5029436;28;20080;-76
2021/04/04 11:18:00;;;;;;;9.73;4.10;;;;;;;14.00;45.87;98217.72;5029527;28;20065;-76
2021/04/04 11:20:26;;;;;;;8.63;3.45;;;;;;;15.07;42.21;98204.72;5028056;28;20045;-76
2021/04/04 11:22:53;;;;;;;12.13;3.78;;;;;;;13.36;42.99;98209.44;5028900;28;20038;-76
2021/04/04 11:25:27;;;;;;;13.93;4.22;;;;;;;12.17;46.23;98198.94;5011688;28;20045;-77
2021/04/04 11:27:53;;;;;;;10.60;3.78;;;;;;;11.34;48.13;98203.09;5032960;28;20221;-76
2021/04/04 11:30:28;;;;;;;11.30;3.88;;;;;;;12.33;47.57;98189.28;5037266;28;20056;-76
2021/04/04 11:33:19;;;;;;;8.73;3.47;;;;;;;14.23;42.57;98189.97;5036313;28;20033;-74
2021/04/04 11:36:09;;;;;;;10.40;3.67;;;;;;;15.89;40.84;98185.66;5019491;28;20517;-74
2021/04/04 11:38:40;;;;;;;11.25;3.60;;;;;;;16.21;40.50;98181.28;5018932;28;20104;-74
2021/04/04 11:41:20;;;;;;;9.80;3.92;;;;;;;18.03;37.61;98174.53;5033187;28;20038;-75
2021/04/04 11:43:53;;;;;;;8.20;3.75;;;;;;;19.25;34.24;98171.72;5045160;28;20064;-74
2021/04/04 11:46:41;;;;;;;7.80;3.33;;;;;;;17.39;35.18;98174.59;5049811;28;20041;-75
2021/04/04 11:49:29;;;;;;;10.68;3.28;;;;;;;15.10;38.07;98168.59;5049365;28;20055;-75
2021/04/04 11:51:58;;;;;;;8.05;3.53;;;;;;;15.10;38.07;98168.59;5049337;28;20133;-74
2021/04/04 11:54:59;;;;;;;9.20;3.58;;;;;;;15.99;39.44;98163.38;5031865;28;20515;-74
2021/04/04 11:57:31;;;;;;;8.07;3.00;;;;;;;17.28;36.63;98150.81;4988083;28;20057;-75
2021/04/04 11:59:59;;;;;;;10.15;3.15;;;;;;;17.24;36.81;98153.41;5023111;28;20065;-76
2021/04/04 12:02:28;;;;;;;8.88;3.25;;;;;;;15.76;38.88;98153.16;5015476;28;20044;-75
2021/04/04 12:05:07;;;;;;;7.93;3.22;;;;;;;17.40;36.31;98143.34;5049763;28;20045;-75
2021/04/04 12:07:49;;;;;;;11.02;3.17;;;;;;;15.83;37.81;98146.03;5050949;28;20045;-73
2021/04/04 12:10:17;;;;;;;5.70;3.20;;;;;;;13.61;40.77;98132.44;5050609;28;20048;-74
2021/04/04 12:12:44;;;;;;;8.90;3.00;;;;;;;13.96;40.76;98135.13;5035319;28;20661;-74
2021/04/04 12:15:18;;;;;;;8.45;3.00;;;;;;;12.91;43.12;98132.72;5052800;28;20263;-72
2021/04/04 12:17:47;;;;;;;7.40;2.80;;;;;;;15.87;39.53;98136.00;5054531;28;20044;-75
2021/04/04 12:20:15;;;;;;;7.13;3.30;;;;;;;15.38;38.22;98129.53;5055293;28;20127;-76
2021/04/04 12:22:43;;;;;;;9.77;3.15;;;;;;;15.39;39.37;98131.16;5053175;28;20060;-73
2021/04/04 12:25:24;;;;;;;6.45;2.95;;;;;;;16.68;37.79;98121.59;5053472;28;20059;-74
2021/04/04 12:27:53;;;;;;;8.88;3.03;;;;;;;18.47;33.91;98116.94;5052634;28;20045;-75